Time;durP1;ratioP1;P1;durP2;ratioP2;P2;SDS_P1;SDS_P2;PMS_P1;PMS_P2;Temp;Humidity;BMP_temperature;BMP_pressure;BME280_temperature;BME280_humidity;BME280_pressure;Samples;Min_cycle;Max_cycle;Signal;HPM_P1;HPM_P2
2023/11/10 18:40:37;;;;;;;1999.90;999.90;;;;;;;;;;6170155;22;1401817;-71
2023/11/10 18:43:03;;;;;;;1999.90;999.90;;;;;;;;;;6211962;23;20052;-72
2023/11/10 18:45:29;;;;;;;1999.90;999.90;;;;;;;;;;6213667;23;20009;-70
2023/11/10 18:47:55;;;;;;;1999.90;999.90;;;;;;;;;;6213266;23;20012;-68
2023/11/10 18:50:23;;;;;;;1999.90;999.90;;;;;;;;;;6213994;23;20051;-70
2023/11/10 18:52:50;;;;;;;1999.90;999.90;;;;;;;;;;6214095;23;19996;-68
2023/11/10 18:55:17;;;;;;;1999.90;999.90;;;;;;;;;;6213854;23;20067;-68
2023/11/10 18:57:43;;;;;;;1999.90;999.90;;;;;;;;;;6213627;23;20016;-68
2023/11/10 19:00:09;;;;;;;1999.90;999.90;;;;;;;;;;6213639;23;20000;-68
2023/11/10 19:02:36;;;;;;;1999.90;999.90;;;;;;;;;;6212884;23;20005;-69
2023/11/10 19:05:03;;;;;;;1999.90;999.90;;;;;;;;;;6211740;23;20011;-67
2023/11/10 19:07:29;;;;;;;1999.90;999.90;;;;;;;;;;6213470;23;20000;-67
2023/11/10 19:09:55;;;;;;;1999.90;999.90;;;;;;;;;;6213316;23;20011;-71
2023/11/10 19:12:21;;;;;;;1999.90;999.90;;;;;;;;;;6213622;23;20007;-70
2023/11/10 19:14:47;;;;;;;1999.90;999.90;;;;;;;;;;6213438;23;20008;-69
2023/11/10 19:17:16;;;;;;;1999.90;999.90;;;;;;;;;;6212855;23;20001;-67
2023/11/10 19:19:43;;;;;;;1999.90;999.90;;;;;;;;;;6213412;23;20011;-68
2023/11/10 19:22:09;;;;;;;1999.90;999.90;;;;;;;;;;6213236;23;20005;-70
2023/11/10 19:24:35;;;;;;;1999.90;999.90;;;;;;;;;;6211687;23;20063;-67
2023/11/10 19:27:02;;;;;;;1999.90;999.90;;;;;;;;;;6212929;23;20444;-69
2023/11/10 19:29:30;;;;;;;1999.90;999.90;;;;;;;;;;6212657;23;20102;-70
2023/11/10 19:31:56;;;;;;;1999.90;999.90;;;;;;;;;;6186952;23;20622;-68
2023/11/10 19:34:22;;;;;;;1999.90;999.90;;;;;;;;;;6212532;23;20000;-71
2023/11/10 19:36:50;;;;;;;1999.90;999.90;;;;;;;;;;6213570;23;20076;-68
2023/11/10 19:39:17;;;;;;;1999.90;999.90;;;;;;;;;;6212908;23;20432;-71
2023/11/10 19:41:43;;;;;;;1999.90;999.90;;;;;;;;;;6197024;23;20388;-70
2023/11/10 19:44:13;;;;;;;1999.90;999.90;;;;;;;;;;6181784;23;20304;-67
2023/11/10 19:46:40;;;;;;;1999.90;999.90;;;;;;;;;;6183697;23;20338;-68
2023/11/10 19:49:06;;;;;;;1999.90;999.90;;;;;;;;;;6183189;23;20009;-66
2023/11/10 19:51:32;;;;;;;1999.90;999.90;;;;;;;;;;6182242;23;20072;-66
2023/11/10 19:53:58;;;;;;;1999.90;999.90;;;;;;;;;;6182961;23;20009;-68
2023/11/10 19:56:25;;;;;;;1999.90;999.90;;;;;;;;;;6156932;23;20072;-69
2023/11/10 19:58:51;;;;;;;1999.90;999.90;;;;;;;;;;6157143;23;20384;-67
2023/11/10 20:01:18;;;;;;;1999.90;999.90;;;;;;;;;;6157721;23;20060;-68
2023/11/10 20:03:47;;;;;;;1999.90;999.90;;;;;;;;;;6157972;23;20340;-67
2023/11/10 20:06:14;;;;;;;1999.90;999.90;;;;;;;;;;6156980;23;20001;-68
2023/11/10 20:08:43;;;;;;;1999.90;999.90;;;;;;;;;;6183987;23;20040;-68
2023/11/10 20:11:10;;;;;;;1999.90;999.90;;;;;;;;;;6183978;23;20104;-69
2023/11/10 20:13:39;;;;;;;1999.90;999.90;;;;;;;;;;6182992;23;20507;-74
2023/11/10 20:16:06;;;;;;;1999.90;999.90;;;;;;;;;;6155994;23;20040;-74
2023/11/10 20:18:34;;;;;;;1999.90;999.90;;;;;;;;;;6156580;23;20005;-68
2023/11/10 20:21:01;;;;;;;1999.90;999.90;;;;;;;;;;6156017;23;20009;-70
2023/11/10 20:23:27;;;;;;;1999.90;999.90;;;;;;;;;;6183029;23;20429;-70
2023/11/10 20:25:53;;;;;;;1999.90;999.90;;;;;;;;;;6155667;23;20009;-75
2023/11/10 20:28:20;;;;;;;1999.90;999.90;;;;;;;;;;6154989;23;20429;-73
2023/11/10 20:30:46;;;;;;;1999.90;999.90;;;;;;;;;;6182587;23;20012;-70
2023/11/10 20:33:12;;;;;;;1999.90;999.90;;;;;;;;;;6182792;23;20036;-71
2023/11/10 20:35:39;;;;;;;1999.90;999.90;;;;;;;;;;6182143;23;20009;-73
2023/11/10 20:38:05;;;;;;;1999.90;999.90;;;;;;;;;;6182823;23;20497;-67
2023/11/10 20:40:31;;;;;;;1999.90;999.90;;;;;;;;;;6182515;23;20444;-71
2023/11/10 20:42:57;;;;;;;1999.90;999.90;;;;;;;;;;6182766;23;20028;-64
2023/11/10 20:45:25;;;;;;;1999.90;999.90;;;;;;;;;;6155837;23;20001;-67
2023/11/10 20:47:51;;;;;;;1999.90;999.90;;;;;;;;;;6182722;23;20020;-73
2023/11/10 20:50:17;;;;;;;1999.90;999.90;;;;;;;;;;6182604;23;20005;-69
2023/11/10 20:52:44;;;;;;;1999.90;999.90;;;;;;;;;;6181525;23;20436;-64
2023/11/10 20:55:10;;;;;;;1999.90;999.90;;;;;;;;;;6182399;23;20000;-68
2023/11/10 20:57:37;;;;;;;1999.90;999.90;;;;;;;;;;6181582;23;19997;-70
2023/11/10 21:00:05;;;;;;;1999.90;999.90;;;;;;;;;;6156568;23;20032;-71
2023/11/10 21:02:31;;;;;;;1999.90;999.90;;;;;;;;;;6181955;23;20092;-69
2023/11/10 21:04:57;;;;;;;1999.90;999.90;;;;;;;;;;6182289;23;20096;-66
2023/11/10 21:07:23;;;;;;;1999.90;999.90;;;;;;;;;;6181706;23;20309;-63
2023/11/10 21:09:49;;;;;;;1999.90;999.90;;;;;;;;;;6182411;23;20023;-72
2023/11/10 21:12:15;;;;;;;1999.90;999.90;;;;;;;;;;6182178;23;20005;-75
2023/11/10 21:14:41;;;;;;;1999.90;999.90;;;;;;;;;;6155422;23;20448;-72
2023/11/10 21:17:10;;;;;;;1999.90;999.90;;;;;;;;;;6182337;23;20027;-73
2023/11/10 21:19:36;;;;;;;1999.90;999.90;;;;;;;;;;6181924;23;20005;-70
2023/11/10 21:22:03;;;;;;;1999.90;999.90;;;;;;;;;;6181941;23;20028;-70
2023/11/10 21:24:29;;;;;;;1999.90;999.90;;;;;;;;;;6181615;23;20734;-71
2023/11/10 21:26:55;;;;;;;1999.90;999.90;;;;;;;;;;6155279;23;20302;-73
2023/11/10 21:29:21;;;;;;;1999.90;999.90;;;;;;;;;;6155693;23;20020;-73
2023/11/10 21:31:48;;;;;;;1999.90;999.90;;;;;;;;;;6182890;23;20011;-73
2023/11/10 21:34:15;;;;;;;1999.90;999.90;;;;;;;;;;6182343;23;20013;-70
2023/11/10 21:36:42;;;;;;;1999.90;999.90;;;;;;;;;;6182819;23;20001;-71
2023/11/10 21:39:13;;;;;;;1999.90;999.90;;;;;;;;;;6182894;23;20013;-70
2023/11/10 21:41:40;;;;;;;1999.90;999.90;;;;;;;;;;6161986;23;20021;-66
2023/11/10 21:44:09;;;;;;;1999.90;999.90;;;;;;;;;;6182598;23;20005;-67
2023/11/10 21:46:37;;;;;;;1999.90;999.90;;;;;;;;;;6182295;23;20336;-69
2023/11/10 21:49:07;;;;;;;1999.90;999.90;;;;;;;;;;6180234;23;20021;-69
2023/11/10 21:51:33;;;;;;;1999.90;999.90;;;;;;;;;;6182078;23;20080;-69
2023/11/10 21:54:01;;;;;;;1999.90;999.90;;;;;;;;;;6182551;23;20017;-68
2023/11/10 21:56:27;;;;;;;1999.90;999.90;;;;;;;;;;6181095;23;20012;-72
2023/11/10 21:58:53;;;;;;;1999.90;999.90;;;;;;;;;;6185064;23;20009;-69
2023/11/10 22:01:20;;;;;;;1999.90;999.90;;;;;;;;;;6183265;23;20005;-72
2023/11/10 22:03:47;;;;;;;1999.90;999.90;;;;;;;;;;6182368;23;20005;-73
2023/11/10 22:06:13;;;;;;;1999.90;999.90;;;;;;;;;;6183929;23;20009;-75
2023/11/10 22:08:39;;;;;;;1999.90;999.90;;;;;;;;;;6184933;23;20310;-77
2023/11/10 22:11:08;;;;;;;1999.90;999.90;;;;;;;;;;6183425;23;20306;-73
2023/11/10 22:13:39;;;;;;;1999.90;999.90;;;;;;;;;;6183693;23;20035;-73
2023/11/10 22:16:05;;;;;;;1999.90;999.90;;;;;;;;;;6182022;23;20092;-72
2023/11/10 22:18:31;;;;;;;1999.90;999.90;;;;;;;;;;6181694;23;20093;-73
2023/11/10 22:21:00;;;;;;;1999.90;999.90;;;;;;;;;;6181701;23;20023;-73
2023/11/10 22:23:26;;;;;;;1999.90;999.90;;;;;;;;;;6183311;23;20001;-73
2023/11/10 22:25:52;;;;;;;1999.90;999.90;;;;;;;;;;6183993;23;20033;-73
2023/11/10 22:28:19;;;;;;;1999.90;999.90;;;;;;;;;;6182776;23;20013;-73
2023/11/10 22:30:46;;;;;;;1999.90;999.90;;;;;;;;;;6184321;23;20489;-70
2023/11/10 22:33:19;;;;;;;1999.90;999.90;;;;;;;;;;6182710;23;20401;-72
2023/11/10 22:35:47;;;;;;;1999.90;999.90;;;;;;;;;;6184205;23;20048;-70
2023/11/10 22:38:13;;;;;;;1999.90;999.90;;;;;;;;;;6183958;23;20005;-70
2023/11/10 22:40:39;;;;;;;1999.90;999.90;;;;;;;;;;6182241;23;20057;-74
2023/11/10 22:43:05;;;;;;;1999.90;999.90;;;;;;;;;;6180418;23;20341;-72
2023/11/10 22:45:32;;;;;;;1999.90;999.90;;;;;;;;;;6181987;23;20101;-73
2023/11/10 22:47:58;;;;;;;1999.90;999.90;;;;;;;;;;6181265;23;20012;-73
2023/11/10 22:50:24;;;;;;;1999.90;999.90;;;;;;;;;;6183419;23;20005;-68
2023/11/10 22:52:55;;;;;;;1999.90;999.90;;;;;;;;;;6185269;23;20005;-70
